Time;durP1;ratioP1;P1;durP2;ratioP2;P2;SDS_P1;SDS_P2;PMS_P1;PMS_P2;Temp;Humidity;BMP_temperature;BMP_pressure;BME280_temperature;BME280_humidity;BME280_pressure;Samples;Min_cycle;Max_cycle;Signal;HPM_P1;HPM_P2
2023/12/06 00:00:53;;;;;;;67.05;31.88;;;;;;;;;;5023817;28;20037;-66
2023/12/06 00:03:20;;;;;;;62.85;31.13;;;;;;;;;;5024671;28;20489;-66
2023/12/06 00:05:46;;;;;;;58.38;31.40;;;;;;;;;;5027325;28;20038;-66
2023/12/06 00:08:12;;;;;;;62.30;31.67;;;;;;;;;;5024962;28;20047;-66
2023/12/06 00:10:38;;;;;;;54.58;29.15;;;;;;;;;;5043372;28;20049;-66
2023/12/06 00:13:04;;;;;;;62.03;29.67;;;;;;;;;;5042284;28;20037;-66
2023/12/06 00:15:32;;;;;;;55.80;29.80;;;;;;;;;;5022891;28;20048;-66
2023/12/06 00:17:58;;;;;;;62.83;31.70;;;;;;;;;;5025108;28;20056;-66
2023/12/06 00:20:24;;;;;;;60.45;32.03;;;;;;;;;;5025292;28;20056;-66
2023/12/06 00:22:51;;;;;;;58.35;30.38;;;;;;;;;;5023816;28;20045;-66
2023/12/06 00:25:17;;;;;;;60.08;29.02;;;;;;;;;;5042356;28;20501;-66
2023/12/06 00:27:43;;;;;;;57.45;29.73;;;;;;;;;;5043999;28;20330;-66
2023/12/06 00:30:09;;;;;;;56.00;28.75;;;;;;;;;;5025742;28;20106;-66
2023/12/06 00:32:36;;;;;;;56.65;28.10;;;;;;;;;;5042989;28;20507;-66
2023/12/06 00:35:02;;;;;;;56.90;29.27;;;;;;;;;;5044090;28;20032;-66
2023/12/06 00:37:28;;;;;;;54.25;29.27;;;;;;;;;;5027086;28;20048;-66
2023/12/06 00:39:54;;;;;;;51.13;28.60;;;;;;;;;;5026867;28;20042;-66
2023/12/06 00:42:20;;;;;;;47.38;27.50;;;;;;;;;;5023554;28;20407;-66
2023/12/06 00:44:46;;;;;;;45.35;26.80;;;;;;;;;;5042855;28;20037;-66
2023/12/06 00:47:13;;;;;;;46.38;27.67;;;;;;;;;;5025955;28;20052;-66
2023/12/06 00:49:39;;;;;;;45.40;25.98;;;;;;;;;;5025174;28;20067;-66
2023/12/06 00:52:05;;;;;;;47.78;26.50;;;;;;;;;;5026377;28;20136;-66
2023/12/06 00:54:31;;;;;;;47.15;26.35;;;;;;;;;;5047497;28;20037;-66
2023/12/06 00:56:57;;;;;;;38.88;24.30;;;;;;;;;;5027007;28;20458;-66
2023/12/06 00:59:23;;;;;;;41.97;24.88;;;;;;;;;;5044892;28;20040;-66
2023/12/06 01:01:50;;;;;;;43.72;24.48;;;;;;;;;;5024966;28;20049;-66
2023/12/06 01:04:16;;;;;;;38.50;24.05;;;;;;;;;;5043314;28;20132;-66
2023/12/06 01:06:42;;;;;;;41.80;23.90;;;;;;;;;;5043027;28;20536;-66
2023/12/06 01:09:08;;;;;;;37.53;24.00;;;;;;;;;;5042458;28;20140;-66
2023/12/06 01:11:34;;;;;;;42.00;24.17;;;;;;;;;;5025966;28;20131;-66
2023/12/06 01:14:00;;;;;;;42.47;24.60;;;;;;;;;;5043919;28;20052;-66
2023/12/06 01:16:27;;;;;;;39.05;24.25;;;;;;;;;;5025562;28;20055;-66
2023/12/06 01:18:53;;;;;;;34.65;23.55;;;;;;;;;;5023296;28;20396;-66
2023/12/06 01:21:19;;;;;;;42.28;23.85;;;;;;;;;;5026223;28;20044;-66
2023/12/06 01:23:45;;;;;;;40.17;23.15;;;;;;;;;;5043671;28;20045;-66
2023/12/06 01:26:11;;;;;;;35.90;22.10;;;;;;;;;;5023313;28;20128;-66
2023/12/06 01:28:37;;;;;;;38.63;22.85;;;;;;;;;;5044769;28;20048;-66
2023/12/06 01:31:04;;;;;;;37.53;21.92;;;;;;;;;;5024607;28;20445;-66
2023/12/06 01:33:30;;;;;;;39.33;23.20;;;;;;;;;;5024272;28;20472;-66
2023/12/06 01:35:56;;;;;;;34.42;21.33;;;;;;;;;;5026160;28;20144;-66
2023/12/06 01:38:22;;;;;;;33.60;23.10;;;;;;;;;;5044286;28;20503;-66
2023/12/06 01:40:48;;;;;;;39.65;22.77;;;;;;;;;;5046142;28;20115;-66
2023/12/06 01:43:15;;;;;;;37.92;22.50;;;;;;;;;;5026751;28;20124;-66
2023/12/06 01:45:41;;;;;;;36.88;23.13;;;;;;;;;;5043802;28;20433;-66
2023/12/06 01:48:07;;;;;;;36.85;22.35;;;;;;;;;;5030209;28;20115;-66
2023/12/06 01:50:34;;;;;;;41.38;24.10;;;;;;;;;;5046345;28;20067;-66
2023/12/06 01:53:00;;;;;;;36.22;21.25;;;;;;;;;;5046699;28;20029;-66
2023/12/06 01:55:27;;;;;;;41.60;22.85;;;;;;;;;;5027603;28;20146;-66
2023/12/06 01:57:53;;;;;;;36.53;22.63;;;;;;;;;;5046982;28;20131;-66
2023/12/06 02:00:19;;;;;;;42.80;23.60;;;;;;;;;;5044845;28;20139;-66
2023/12/06 02:02:45;;;;;;;36.30;22.88;;;;;;;;;;5045203;28;20106;-66
2023/12/06 02:05:12;;;;;;;40.33;23.40;;;;;;;;;;5026532;28;20114;-66
2023/12/06 02:07:39;;;;;;;36.47;21.67;;;;;;;;;;5028738;28;20127;-66
2023/12/06 02:10:06;;;;;;;36.10;22.35;;;;;;;;;;5045714;28;20127;-66
2023/12/06 02:12:32;;;;;;;36.20;21.95;;;;;;;;;;5043263;28;20387;-66
2023/12/06 02:14:59;;;;;;;38.75;23.20;;;;;;;;;;5016861;28;20053;-66
2023/12/06 02:17:26;;;;;;;44.15;23.05;;;;;;;;;;5043545;28;20071;-66
2023/12/06 02:19:53;;;;;;;40.38;23.42;;;;;;;;;;5029515;28;20057;-66
2023/12/06 02:22:19;;;;;;;33.60;21.67;;;;;;;;;;5027260;28;20098;-66
2023/12/06 02:24:46;;;;;;;39.40;22.15;;;;;;;;;;5027919;28;20051;-66
2023/12/06 02:27:13;;;;;;;40.33;23.40;;;;;;;;;;5028989;28;20068;-66
2023/12/06 02:29:39;;;;;;;46.92;24.45;;;;;;;;;;5042192;28;20128;-66
2023/12/06 02:32:05;;;;;;;40.78;23.38;;;;;;;;;;5027115;28;20606;-66
2023/12/06 02:34:32;;;;;;;44.50;23.45;;;;;;;;;;5025022;28;20074;-66
2023/12/06 02:37:01;;;;;;;33.47;20.65;;;;;;;;;;5028575;28;20052;-66
2023/12/06 02:39:30;;;;;;;37.20;22.10;;;;;;;;;;5029371;28;20048;-66
2023/12/06 02:41:56;;;;;;;37.50;21.25;;;;;;;;;;5052273;28;20130;-66
2023/12/06 02:44:22;;;;;;;37.42;21.58;;;;;;;;;;5053371;28;20480;-66
2023/12/06 02:46:48;;;;;;;34.97;20.25;;;;;;;;;;5035025;28;20420;-66
2023/12/06 02:49:14;;;;;;;39.22;20.90;;;;;;;;;;5051680;28;20040;-66
2023/12/06 02:51:40;;;;;;;38.15;21.80;;;;;;;;;;5034839;28;20133;-66
2023/12/06 02:54:06;;;;;;;33.85;20.95;;;;;;;;;;5031680;28;20049;-66
2023/12/06 02:56:33;;;;;;;32.00;19.83;;;;;;;;;;5035246;28;20501;-66
2023/12/06 02:58:59;;;;;;;36.90;20.38;;;;;;;;;;5034218;28;20148;-66
2023/12/06 03:01:25;;;;;;;30.40;19.80;;;;;;;;;;5034875;28;20040;-66
2023/12/06 03:03:51;;;;;;;34.25;20.50;;;;;;;;;;5032010;28;20063;-66
2023/12/06 03:06:17;;;;;;;30.65;18.27;;;;;;;;;;5034280;28;20045;-66
2023/12/06 03:08:43;;;;;;;35.85;20.27;;;;;;;;;;5048085;28;20103;-66
2023/12/06 03:11:09;;;;;;;36.80;20.08;;;;;;;;;;5034821;28;20129;-66
2023/12/06 03:13:35;;;;;;;34.33;20.05;;;;;;;;;;5032678;28;20055;-66
2023/12/06 03:16:02;;;;;;;29.88;17.95;;;;;;;;;;5035068;28;20045;-66
2023/12/06 03:18:28;;;;;;;37.95;19.50;;;;;;;;;;5032251;28;20064;-66
2023/12/06 03:20:54;;;;;;;30.83;18.95;;;;;;;;;;5034925;28;20048;-66
2023/12/06 03:23:20;;;;;;;30.40;18.63;;;;;;;;;;5032931;28;20041;-66
2023/12/06 03:25:46;;;;;;;32.20;18.95;;;;;;;;;;5034899;28;20378;-66
2023/12/06 03:28:12;;;;;;;27.25;17.38;;;;;;;;;;5051710;28;20036;-66
2023/12/06 03:30:39;;;;;;;28.27;18.20;;;;;;;;;;5034928;28;20545;-66
2023/12/06 03:33:05;;;;;;;32.40;19.08;;;;;;;;;;5033650;28;20025;-66
2023/12/06 03:35:31;;;;;;;30.60;18.00;;;;;;;;;;5051634;28;21695;-66
2023/12/06 03:37:57;;;;;;;33.35;18.58;;;;;;;;;;5026354;28;20175;-66
2023/12/06 03:40:23;;;;;;;30.60;17.40;;;;;;;;;;5034842;28;20488;-66
2023/12/06 03:42:49;;;;;;;28.35;17.73;;;;;;;;;;5051479;28;20556;-66
2023/12/06 03:45:16;;;;;;;26.15;18.08;;;;;;;;;;5051152;28;20512;-66
2023/12/06 03:47:42;;;;;;;29.52;17.52;;;;;;;;;;5033789;28;20052;-66
2023/12/06 03:50:08;;;;;;;27.30;16.73;;;;;;;;;;5034226;28;20113;-66
2023/12/06 03:52:34;;;;;;;31.05;17.70;;;;;;;;;;5033513;28;20045;-66
2023/12/06 03:55:00;;;;;;;27.83;17.63;;;;;;;;;;5028951;28;20110;-66
2023/12/06 03:57:27;;;;;;;26.65;16.27;;;;;;;;;;5032402;28;20049;-67
2023/12/06 03:59:53;;;;;;;25.38;16.85;;;;;;;;;;5033736;28;20081;-66
2023/12/06 04:02:19;;;;;;;27.08;16.33;;;;;;;;;;5051730;28;20322;-66
2023/12/06 04:04:45;;;;;;;23.23;15.18;;;;;;;;;;5049771;28;20086;-66
2023/12/06 04:07:11;;;;;;;22.88;14.68;;;;;;;;;;5050151;28;20365;-66
2023/12/06 04:09:38;;;;;;;25.27;16.08;;;;;;;;;;5051956;28;20056;-66
2023/12/06 04:12:04;;;;;;;24.33;15.30;;;;;;;;;;5051834;28;20044;-66
2023/12/06 04:14:30;;;;;;;23.80;15.13;;;;;;;;;;5050461;28;20522;-66
2023/12/06 04:16:56;;;;;;;24.55;16.20;;;;;;;;;;5051002;28;20436;-66
2023/12/06 04:19:22;;;;;;;23.38;15.25;;;;;;;;;;5052252;28;20049;-66
2023/12/06 04:21:49;;;;;;;24.77;15.80;;;;;;;;;;5050878;28;20075;-66
2023/12/06 04:24:15;;;;;;;27.20;16.38;;;;;;;;;;5050420;28;20056;-66
2023/12/06 04:26:41;;;;;;;24.48;16.13;;;;;;;;;;5051329;28;20572;-66
2023/12/06 04:29:07;;;;;;;26.35;15.98;;;;;;;;;;5051243;28;20326;-66
2023/12/06 04:31:33;;;;;;;23.02;14.52;;;;;;;;;;5033843;28;20125;-66
2023/12/06 04:33:59;;;;;;;21.48;14.07;;;;;;;;;;5030912;28;20048;-66
2023/12/06 04:36:25;;;;;;;22.98;14.13;;;;;;;;;;5032833;28;20106;-66
2023/12/06 04:38:52;;;;;;;21.40;13.93;;;;;;;;;;5050433;28;20049;-66
2023/12/06 04:41:18;;;;;;;22.20;14.65;;;;;;;;;;5033030;28;20049;-66
2023/12/06 04:43:44;;;;;;;25.15;15.23;;;;;;;;;;5049806;28;20103;-66
2023/12/06 04:46:10;;;;;;;20.80;14.43;;;;;;;;;;5033196;28;20049;-66
2023/12/06 04:48:37;;;;;;;20.42;13.95;;;;;;;;;;5033279;28;20516;-66
2023/12/06 04:51:03;;;;;;;25.90;14.63;;;;;;;;;;5016644;28;20112;-66
2023/12/06 04:53:29;;;;;;;24.35;14.02;;;;;;;;;;5050456;28;20140;-66
2023/12/06 04:55:55;;;;;;;26.75;15.30;;;;;;;;;;5051026;28;20057;-66
2023/12/06 04:58:21;;;;;;;21.60;14.48;;;;;;;;;;5051392;28;20049;-66
2023/12/06 05:00:48;;;;;;;23.52;14.90;;;;;;;;;;5032203;28;20116;-66
2023/12/06 05:03:14;;;;;;;20.23;14.63;;;;;;;;;;5032163;28;20040;-66
2023/12/06 05:05:40;;;;;;;22.98;14.25;;;;;;;;;;5051217;28;20036;-66
2023/12/06 05:08:06;;;;;;;20.02;13.20;;;;;;;;;;5050650;28;20044;-66
2023/12/06 05:10:32;;;;;;;21.92;14.90;;;;;;;;;;5032574;28;20131;-66
2023/12/06 05:12:59;;;;;;;21.02;12.98;;;;;;;;;;5051611;28;20056;-66
2023/12/06 05:15:25;;;;;;;24.50;13.68;;;;;;;;;;5054688;28;20183;-66
2023/12/06 05:17:51;;;;;;;21.15;13.18;;;;;;;;;;5036117;28;20155;-66
2023/12/06 05:20:17;;;;;;;21.10;12.70;;;;;;;;;;5055491;28;20057;-66
2023/12/06 05:22:44;;;;;;;20.90;13.57;;;;;;;;;;5054140;28;20048;-66
2023/12/06 05:25:10;;;;;;;21.65;13.80;;;;;;;;;;5054693;28;20032;-66
2023/12/06 05:27:36;;;;;;;20.27;13.38;;;;;;;;;;5053602;28;20504;-66
2023/12/06 05:30:02;;;;;;;20.85;13.52;;;;;;;;;;5055339;28;20154;-66
2023/12/06 05:32:28;;;;;;;21.70;12.85;;;;;;;;;;5035257;28;20092;-66
2023/12/06 05:34:55;;;;;;;21.75;12.70;;;;;;;;;;5053871;28;20132;-66
2023/12/06 05:37:21;;;;;;;19.05;12.80;;;;;;;;;;5055215;28;20091;-66
2023/12/06 05:39:48;;;;;;;23.05;13.05;;;;;;;;;;5037455;28;20121;-66
2023/12/06 05:42:16;;;;;;;20.63;12.35;;;;;;;;;;5036334;28;20041;-66
2023/12/06 05:44:42;;;;;;;20.95;12.75;;;;;;;;;;5035533;28;20439;-66
2023/12/06 05:47:08;;;;;;;20.65;12.27;;;;;;;;;;5035968;28;20045;-66
2023/12/06 05:49:34;;;;;;;19.33;12.80;;;;;;;;;;5054126;28;20052;-66
2023/12/06 05:52:01;;;;;;;21.38;13.18;;;;;;;;;;5036592;28;20064;-66
2023/12/06 05:54:27;;;;;;;20.00;13.02;;;;;;;;;;5032325;28;20040;-66
2023/12/06 05:56:53;;;;;;;22.38;12.20;;;;;;;;;;5050038;28;20040;-66
2023/12/06 05:59:19;;;;;;;23.13;13.15;;;;;;;;;;5032470;28;20373;-66
2023/12/06 06:01:45;;;;;;;20.08;13.50;;;;;;;;;;5034166;28;20108;-66
2023/12/06 06:04:12;;;;;;;25.65;13.40;;;;;;;;;;5049495;28;20041;-66
2023/12/06 06:06:38;;;;;;;19.67;12.73;;;;;;;;;;5030083;28;20135;-67
2023/12/06 06:09:04;;;;;;;21.15;15.50;;;;;;;;;;5019955;28;20037;-67
2023/12/06 06:11:30;;;;;;;23.02;14.43;;;;;;;;;;5036633;28;20041;-66
2023/12/06 06:13:57;;;;;;;22.50;11.88;;;;;;;;;;5036219;28;20040;-66
2023/12/06 06:16:23;;;;;;;23.77;12.90;;;;;;;;;;5052976;28;20075;-66
2023/12/06 06:18:49;;;;;;;21.17;12.07;;;;;;;;;;5053551;28;20500;-66
2023/12/06 06:21:15;;;;;;;23.70;13.02;;;;;;;;;;5036216;28;20125;-67
2023/12/06 06:23:45;;;;;;;19.42;12.38;;;;;;;;;;5052870;28;20128;-66
2023/12/06 06:26:11;;;;;;;18.02;11.70;;;;;;;;;;5049561;28;20048;-66
2023/12/06 06:28:38;;;;;;;19.20;12.23;;;;;;;;;;5034335;28;20126;-67
2023/12/06 06:31:04;;;;;;;23.90;13.38;;;;;;;;;;5035875;28;20052;-67
2023/12/06 06:33:30;;;;;;;17.83;12.45;;;;;;;;;;5054334;28;20451;-66
2023/12/06 06:35:57;;;;;;;18.65;12.38;;;;;;;;;;5033486;28;20510;-65
2023/12/06 06:38:23;;;;;;;20.23;12.35;;;;;;;;;;5044800;28;20045;-66
2023/12/06 06:40:49;;;;;;;24.42;12.85;;;;;;;;;;5027367;28;20055;-65
2023/12/06 06:43:15;;;;;;;19.38;12.48;;;;;;;;;;5051547;28;20041;-66
2023/12/06 06:45:42;;;;;;;18.33;12.40;;;;;;;;;;5049581;28;20160;-66
2023/12/06 06:48:12;;;;;;;25.15;13.10;;;;;;;;;;5034801;28;20512;-66
2023/12/06 06:50:38;;;;;;;19.00;12.18;;;;;;;;;;5033553;28;20424;-65
2023/12/06 06:53:04;;;;;;;18.60;13.02;;;;;;;;;;5053719;28;20396;-65
2023/12/06 06:55:30;;;;;;;20.70;12.57;;;;;;;;;;5029102;28;20045;-70
2023/12/06 06:57:56;;;;;;;24.77;12.82;;;;;;;;;;5031905;28;20049;-69
2023/12/06 07:00:22;;;;;;;20.83;13.15;;;;;;;;;;5029236;28;20048;-69
2023/12/06 07:02:49;;;;;;;19.73;13.43;;;;;;;;;;5031753;28;20055;-70
2023/12/06 07:05:15;;;;;;;19.52;12.93;;;;;;;;;;5039942;28;20144;-65
2023/12/06 07:07:41;;;;;;;21.80;14.65;;;;;;;;;;5046908;28;20144;-71
2023/12/06 07:10:09;;;;;;;18.55;12.15;;;;;;;;;;5033249;28;20048;-70
2023/12/06 07:12:36;;;;;;;18.13;13.10;;;;;;;;;;5034538;28;20037;-66
2023/12/06 07:15:03;;;;;;;20.83;12.50;;;;;;;;;;5030241;28;20048;-64
2023/12/06 07:17:32;;;;;;;19.40;12.70;;;;;;;;;;5033031;28;20045;-65
2023/12/06 07:19:58;;;;;;;27.20;14.27;;;;;;;;;;5032652;28;20060;-65
2023/12/06 07:22:24;;;;;;;20.83;14.02;;;;;;;;;;5035375;28;20037;-66
2023/12/06 07:24:51;;;;;;;19.42;13.05;;;;;;;;;;5030789;28;20045;-66
2023/12/06 07:27:17;;;;;;;23.70;12.90;;;;;;;;;;5050645;28;20490;-65
2023/12/06 07:29:43;;;;;;;21.27;12.80;;;;;;;;;;5032377;28;20052;-66
2023/12/06 07:32:10;;;;;;;24.50;13.27;;;;;;;;;;5033985;28;20045;-66
2023/12/06 07:34:36;;;;;;;22.63;13.07;;;;;;;;;;5051034;28;20370;-65
2023/12/06 07:37:02;;;;;;;20.67;12.68;;;;;;;;;;5031053;28;20076;-65
2023/12/06 07:39:28;;;;;;;24.60;12.90;;;;;;;;;;5052238;28;20045;-66
2023/12/06 07:41:54;;;;;;;19.65;13.57;;;;;;;;;;5052090;28;20045;-65
2023/12/06 07:44:22;;;;;;;20.08;12.57;;;;;;;;;;5033672;28;20049;-65
2023/12/06 07:46:48;;;;;;;35.28;15.80;;;;;;;;;;5051192;28;20049;-65
2023/12/06 07:49:15;;;;;;;23.88;13.50;;;;;;;;;;5051528;28;20043;-65
2023/12/06 07:51:41;;;;;;;26.13;13.98;;;;;;;;;;5052288;28;20072;-65
2023/12/06 07:54:08;;;;;;;21.05;13.85;;;;;;;;;;5052664;28;20041;-65
2023/12/06 07:56:35;;;;;;;24.58;12.77;;;;;;;;;;5050016;28;20056;-67
2023/12/06 07:59:02;;;;;;;19.33;13.02;;;;;;;;;;5033473;28;20095;-65
2023/12/06 08:01:31;;;;;;;18.67;12.25;;;;;;;;;;5034560;28;20053;-66
2023/12/06 08:04:03;;;;;;;23.80;13.15;;;;;;;;;;5052625;28;20461;-65
2023/12/06 08:06:29;;;;;;;20.63;12.02;;;;;;;;;;5013617;28;20139;-65
2023/12/06 08:08:55;;;;;;;22.25;13.35;;;;;;;;;;5052216;28;20468;-65
2023/12/06 08:11:22;;;;;;;17.55;12.25;;;;;;;;;;5035016;28;20099;-72
2023/12/06 08:13:48;;;;;;;21.48;12.68;;;;;;;;;;5033634;28;20041;-65
2023/12/06 08:16:14;;;;;;;18.63;11.68;;;;;;;;;;5013062;28;20052;-65
2023/12/06 08:18:40;;;;;;;23.35;12.65;;;;;;;;;;5028129;28;20076;-66
2023/12/06 08:21:08;;;;;;;18.90;11.80;;;;;;;;;;5027323;28;20497;-66
2023/12/06 08:23:34;;;;;;;22.13;10.95;;;;;;;;;;5030710;28;20088;-65
2023/12/06 08:26:01;;;;;;;20.30;11.68;;;;;;;;;;5030261;28;20118;-66
2023/12/06 08:28:27;;;;;;;17.90;10.90;;;;;;;;;;5030137;28;20096;-65
2023/12/06 08:30:53;;;;;;;21.13;12.15;;;;;;;;;;5030002;28;20048;-65
2023/12/06 08:33:22;;;;;;;21.17;11.98;;;;;;;;;;5028594;28;20042;-65
2023/12/06 08:35:50;;;;;;;17.30;12.18;;;;;;;;;;5028291;28;20223;-65
2023/12/06 08:38:16;;;;;;;21.35;12.55;;;;;;;;;;5024957;28;20393;-66
2023/12/06 08:40:42;;;;;;;21.83;13.07;;;;;;;;;;5028800;28;20088;-66
2023/12/06 08:43:08;;;;;;;21.38;12.80;;;;;;;;;;5028910;28;20041;-65
2023/12/06 08:45:34;;;;;;;21.13;13.32;;;;;;;;;;5029147;28;20049;-65
2023/12/06 08:48:01;;;;;;;23.02;13.70;;;;;;;;;;5027455;28;20136;-65
2023/12/06 08:50:28;;;;;;;19.13;12.52;;;;;;;;;;5028981;28;20045;-65
2023/12/06 08:52:54;;;;;;;22.80;13.95;;;;;;;;;;5027763;28;20053;-65
2023/12/06 08:55:20;;;;;;;20.27;13.20;;;;;;;;;;5028259;28;20128;-65
2023/12/06 08:57:46;;;;;;;22.33;14.52;;;;;;;;;;5029886;28;20045;-65
2023/12/06 09:00:13;;;;;;;30.52;15.88;;;;;;;;;;5029816;28;20401;-65
2023/12/06 09:02:39;;;;;;;24.75;13.38;;;;;;;;;;5028392;28;20510;-65
2023/12/06 09:05:06;;;;;;;20.70;13.55;;;;;;;;;;5029075;28;20038;-65
2023/12/06 09:07:32;;;;;;;18.77;13.27;;;;;;;;;;5028503;28;20045;-65
2023/12/06 09:09:58;;;;;;;21.92;13.63;;;;;;;;;;5029869;28;20563;-65
2023/12/06 09:12:24;;;;;;;17.45;12.88;;;;;;;;;;5012773;28;20045;-65
2023/12/06 09:14:50;;;;;;;20.42;13.30;;;;;;;;;;5030936;28;20391;-66
2023/12/06 09:17:17;;;;;;;24.48;13.85;;;;;;;;;;5033106;28;20442;-65
2023/12/06 09:19:43;;;;;;;18.83;12.90;;;;;;;;;;5050089;28;20146;-67
2023/12/06 09:22:09;;;;;;;23.48;12.93;;;;;;;;;;5030643;28;20045;-65
2023/12/06 09:24:35;;;;;;;21.70;13.70;;;;;;;;;;5031099;28;20044;-65
2023/12/06 09:27:01;;;;;;;17.63;11.52;;;;;;;;;;5030808;28;20460;-66
2023/12/06 09:29:27;;;;;;;15.40;11.63;;;;;;;;;;5031557;28;20041;-66
2023/12/06 09:31:54;;;;;;;20.58;11.23;;;;;;;;;;5029738;28;20041;-65
2023/12/06 09:34:20;;;;;;;17.67;11.18;;;;;;;;;;5032673;28;20124;-65
2023/12/06 09:36:46;;;;;;;17.02;10.93;;;;;;;;;;5049156;28;20442;-65
2023/12/06 09:39:15;;;;;;;16.75;11.27;;;;;;;;;;5033049;28;20110;-66
2023/12/06 09:41:44;;;;;;;15.90;11.20;;;;;;;;;;5047691;28;20215;-65
2023/12/06 09:44:10;;;;;;;18.50;11.10;;;;;;;;;;5047584;28;20390;-65
2023/12/06 09:46:37;;;;;;;18.48;10.60;;;;;;;;;;5031512;28;20463;-65
2023/12/06 09:49:03;;;;;;;16.90;11.02;;;;;;;;;;5028444;28;20090;-66
2023/12/06 09:51:29;;;;;;;21.10;11.38;;;;;;;;;;5031763;28;20044;-65
2023/12/06 09:53:55;;;;;;;19.85;11.20;;;;;;;;;;5050714;28;20508;-65
2023/12/06 09:56:23;;;;;;;22.20;10.65;;;;;;;;;;5033620;28;20132;-65
2023/12/06 09:58:49;;;;;;;19.92;10.48;;;;;;;;;;5031592;28;20053;-65
2023/12/06 10:01:15;;;;;;;16.95;10.52;;;;;;;;;;5032792;28;20044;-66
2023/12/06 10:03:42;;;;;;;20.85;11.02;;;;;;;;;;5019892;28;20120;-65
2023/12/06 10:06:09;;;;;;;17.35;10.73;;;;;;;;;;5053602;28;20053;-66
2023/12/06 10:08:35;;;;;;;21.83;10.27;;;;;;;;;;5050861;28;20388;-66
2023/12/06 10:11:02;;;;;;;19.33;10.63;;;;;;;;;;5034474;28;20087;-66
2023/12/06 10:13:35;;;;;;;18.48;10.20;;;;;;;;;;5036447;28;20056;-66
2023/12/06 10:16:02;;;;;;;14.60;10.50;;;;;;;;;;5020032;28;20045;-66
2023/12/06 10:18:29;;;;;;;19.80;10.60;;;;;;;;;;5033851;28;20240;-66
2023/12/06 10:20:56;;;;;;;21.10;11.13;;;;;;;;;;5051808;28;20037;-66
2023/12/06 10:23:22;;;;;;;17.52;9.68;;;;;;;;;;5036579;28;20049;-66
2023/12/06 10:25:50;;;;;;;18.38;10.98;;;;;;;;;;5035295;28;20170;-66
2023/12/06 10:28:17;;;;;;;15.32;10.40;;;;;;;;;;5018661;28;20076;-66
2023/12/06 10:30:44;;;;;;;18.48;10.35;;;;;;;;;;5054151;28;20033;-66
2023/12/06 10:33:11;;;;;;;24.02;11.95;;;;;;;;;;5053684;28;20135;-66
2023/12/06 10:35:37;;;;;;;19.45;11.32;;;;;;;;;;5035751;28;20161;-65
2023/12/06 10:38:05;;;;;;;19.40;11.60;;;;;;;;;;5053038;28;20464;-66
2023/12/06 10:40:32;;;;;;;16.10;10.82;;;;;;;;;;5034800;28;20049;-66
2023/12/06 10:43:03;;;;;;;19.75;11.95;;;;;;;;;;5019376;28;20057;-66
2023/12/06 10:45:32;;;;;;;18.50;11.20;;;;;;;;;;5052948;28;20045;-65
2023/12/06 10:47:59;;;;;;;17.98;10.80;;;;;;;;;;5032854;28;20053;-66
2023/12/06 10:50:26;;;;;;;19.92;10.23;;;;;;;;;;5045826;28;20029;-66
2023/12/06 10:52:53;;;;;;;19.05;10.82;;;;;;;;;;5035994;28;20132;-66
2023/12/06 10:55:20;;;;;;;23.98;11.23;;;;;;;;;;5034228;28;20071;-66
2023/12/06 10:57:47;;;;;;;19.17;11.88;;;;;;;;;;5034662;28;20083;-66
2023/12/06 11:00:14;;;;;;;17.23;11.00;;;;;;;;;;5035357;28;20073;-66
2023/12/06 11:02:41;;;;;;;19.00;11.68;;;;;;;;;;5034606;28;20088;-65
2023/12/06 11:05:09;;;;;;;21.42;12.25;;;;;;;;;;5035431;28;20113;-66
2023/12/06 11:07:44;;;;;;;20.40;12.00;;;;;;;;;;5052036;28;20037;-64
2023/12/06 11:10:20;;;;;;;17.42;12.25;;;;;;;;;;5051467;28;20568;-66
2023/12/06 11:13:02;;;;;;;20.02;11.35;;;;;;;;;;5053338;28;20041;-65
2023/12/06 11:15:47;;;;;;;17.67;12.00;;;;;;;;;;5032017;28;20125;-66
2023/12/06 11:18:16;;;;;;;17.90;11.48;;;;;;;;;;5031493;28;20049;-66
2023/12/06 11:20:43;;;;;;;19.75;11.68;;;;;;;;;;5053140;28;20524;-65
2023/12/06 11:23:12;;;;;;;19.13;12.05;;;;;;;;;;5035213;28;20045;-65
2023/12/06 11:25:45;;;;;;;20.98;12.70;;;;;;;;;;5050386;28;20037;-65
2023/12/06 11:28:12;;;;;;;18.27;11.98;;;;;;;;;;5053330;28;20483;-65
2023/12/06 11:30:46;;;;;;;18.02;12.35;;;;;;;;;;5051533;28;20213;-65
2023/12/06 11:33:13;;;;;;;18.05;11.50;;;;;;;;;;5034254;28;20045;-65
2023/12/06 11:35:46;;;;;;;17.23;11.50;;;;;;;;;;5033519;28;20483;-65
2023/12/06 11:38:12;;;;;;;17.73;10.60;;;;;;;;;;5012274;28;20060;-65
2023/12/06 11:40:48;;;;;;;16.48;11.45;;;;;;;;;;5034365;28;20175;-65
2023/12/06 11:43:15;;;;;;;24.00;11.82;;;;;;;;;;5031680;28;20123;-65
2023/12/06 11:45:42;;;;;;;15.88;10.70;;;;;;;;;;5052113;28;20041;-65
2023/12/06 11:48:12;;;;;;;14.40;9.90;;;;;;;;;;5034624;28;20044;-65
2023/12/06 11:50:47;;;;;;;16.63;9.93;;;;;;;;;;5033545;28;20500;-65
2023/12/06 11:53:14;;;;;;;15.48;10.15;;;;;;;;;;5033920;28;20485;-65
2023/12/06 11:55:43;;;;;;;23.73;11.63;;;;;;;;;;5046915;28;20127;-65
2023/12/06 11:58:10;;;;;;;14.23;9.88;;;;;;;;;;5030291;28;20053;-65
2023/12/06 12:00:40;;;;;;;14.35;9.50;;;;;;;;;;5031583;28;20396;-65
2023/12/06 12:03:07;;;;;;;21.02;10.52;;;;;;;;;;5048334;28;20083;-65
2023/12/06 12:05:33;;;;;;;14.18;9.27;;;;;;;;;;5029593;28;20052;-65
2023/12/06 12:08:03;;;;;;;13.88;9.13;;;;;;;;;;5052238;28;20067;-65
2023/12/06 12:10:30;;;;;;;14.45;9.05;;;;;;;;;;5051563;28;20110;-65
2023/12/06 12:12:57;;;;;;;12.45;8.85;;;;;;;;;;5033961;28;20048;-65
2023/12/06 12:15:25;;;;;;;15.52;9.32;;;;;;;;;;5051455;28;20098;-65
2023/12/06 12:17:52;;;;;;;13.25;9.13;;;;;;;;;;5031570;28;20357;-65
2023/12/06 12:20:18;;;;;;;14.93;9.70;;;;;;;;;;5051700;28;20045;-65
2023/12/06 12:22:48;;;;;;;14.52;9.63;;;;;;;;;;5051704;28;20098;-65
2023/12/06 12:25:15;;;;;;;16.23;9.60;;;;;;;;;;5033325;28;20045;-65
2023/12/06 12:27:43;;;;;;;16.05;9.45;;;;;;;;;;5050969;28;20060;-65
2023/12/06 12:30:09;;;;;;;13.60;8.90;;;;;;;;;;5034242;28;20032;-65
2023/12/06 12:32:38;;;;;;;21.13;9.40;;;;;;;;;;5033466;28;20447;-66
2023/12/06 12:35:05;;;;;;;13.88;9.43;;;;;;;;;;5033507;28;20037;-65
2023/12/06 12:37:31;;;;;;;13.13;9.40;;;;;;;;;;5046291;28;20045;-65
2023/12/06 12:39:58;;;;;;;16.95;9.65;;;;;;;;;;5038753;28;20044;-71
2023/12/06 12:42:25;;;;;;;14.88;9.18;;;;;;;;;;5033845;28;20047;-65
2023/12/06 12:44:51;;;;;;;13.32;9.50;;;;;;;;;;5033797;28;20071;-72
2023/12/06 12:47:17;;;;;;;13.68;8.93;;;;;;;;;;5030221;28;20056;-65
2023/12/06 12:49:43;;;;;;;19.15;9.70;;;;;;;;;;5049785;28;20041;-65
2023/12/06 12:52:10;;;;;;;16.13;9.68;;;;;;;;;;5051906;28;20037;-65
2023/12/06 12:54:40;;;;;;;15.07;9.40;;;;;;;;;;5023507;28;20144;-65
2023/12/06 12:57:06;;;;;;;12.90;8.48;;;;;;;;;;5033412;28;20047;-65
2023/12/06 12:59:33;;;;;;;14.57;9.98;;;;;;;;;;5050123;28;20120;-65
2023/12/06 13:01:59;;;;;;;14.45;9.68;;;;;;;;;;5033040;28;20051;-65
2023/12/06 13:04:27;;;;;;;16.40;9.40;;;;;;;;;;5025448;28;20511;-65
2023/12/06 13:06:56;;;;;;;17.58;9.52;;;;;;;;;;5044419;28;20044;-65
2023/12/06 13:09:22;;;;;;;12.70;8.70;;;;;;;;;;5046058;28;20041;-65
2023/12/06 13:11:48;;;;;;;15.15;8.90;;;;;;;;;;5029237;28;20083;-65
2023/12/06 13:14:15;;;;;;;17.75;9.93;;;;;;;;;;5049957;28;20052;-65
2023/12/06 13:16:42;;;;;;;14.10;9.30;;;;;;;;;;5032935;28;20060;-65
2023/12/06 13:19:08;;;;;;;15.38;9.07;;;;;;;;;;5031267;28;20064;-65
2023/12/06 13:21:34;;;;;;;13.65;9.38;;;;;;;;;;5049755;28;20041;-65
2023/12/06 13:24:00;;;;;;;16.17;8.48;;;;;;;;;;5050722;28;20056;-65
2023/12/06 13:26:26;;;;;;;17.95;9.15;;;;;;;;;;5033848;28;20457;-65
2023/12/06 13:28:53;;;;;;;16.60;9.80;;;;;;;;;;5050158;28;20110;-65
2023/12/06 13:31:19;;;;;;;13.85;8.50;;;;;;;;;;5033447;28;20052;-65
2023/12/06 13:33:45;;;;;;;14.32;8.63;;;;;;;;;;5049567;28;20110;-65
2023/12/06 13:36:11;;;;;;;15.85;8.38;;;;;;;;;;5053958;28;20079;-65
2023/12/06 13:38:38;;;;;;;10.75;7.00;;;;;;;;;;5036808;28;20045;-65
2023/12/06 13:41:05;;;;;;;11.32;6.85;;;;;;;;;;5065563;28;20051;-65
2023/12/06 13:43:31;;;;;;;11.60;6.38;;;;;;;;;;5036316;28;20128;-65
2023/12/06 13:45:57;;;;;;;10.98;7.32;;;;;;;;;;5035178;28;20044;-65
2023/12/06 13:48:23;;;;;;;11.15;6.38;;;;;;;;;;5035917;28;21415;-65
2023/12/06 13:50:49;;;;;;;13.70;7.70;;;;;;;;;;5036668;28;20041;-65
2023/12/06 13:53:15;;;;;;;10.90;6.75;;;;;;;;;;5054093;28;20048;-64
2023/12/06 13:55:42;;;;;;;12.10;6.43;;;;;;;;;;5054315;28;20400;-64
2023/12/06 13:58:08;;;;;;;11.05;5.97;;;;;;;;;;5035023;28;20048;-65
2023/12/06 14:00:34;;;;;;;15.85;6.28;;;;;;;;;;5054631;28;20526;-64
2023/12/06 14:03:01;;;;;;;12.05;5.65;;;;;;;;;;5054172;28;20036;-65
2023/12/06 14:05:27;;;;;;;11.70;5.97;;;;;;;;;;5052846;28;20052;-65
2023/12/06 14:07:53;;;;;;;10.23;5.97;;;;;;;;;;5036739;28;20049;-65
2023/12/06 14:10:21;;;;;;;11.43;5.85;;;;;;;;;;5054705;28;20476;-65
2023/12/06 14:12:47;;;;;;;14.13;6.20;;;;;;;;;;5035753;28;20048;-65
2023/12/06 14:15:13;;;;;;;9.88;5.95;;;;;;;;;;5035936;28;20059;-65